Terminal Aerodrome Forecast
Issued by NWS

Home | Current Version | Previous Version | Text Only | Print | Product List | Glossary On
Versions: 1 2 3 4 5 6 7 8 9 10 11 12 13 14 15 16 17
000
FTUS43 KGRR 091740
TAFMKG
TAF
KMKG 091740Z 0918/1018 31012G18KT 6SM -SHSN OVC030
      TEMPO 0918/0922 3SM -SN OVC025
     FM092200 30010KT P6SM -SHSN OVC050
     FM101200 28007KT P6SM -SHSN OVC025
     FM101600 27008KT 4SM -SHSN OVC025=

USA.gov is the U.S. government's official web portal to all federal, state and local government web resources and services.